sensor_id;sensor_type;location;lat;lon;timestamp;pressure;altitude;pressure_sealevel;temperature;humidity
70127;BME280;57491;42.694;23.314;2023-06-04T00:02:19;95303.44;;;17.77;72.34
70127;BME280;57491;42.694;23.314;2023-06-04T00:04:45;95306.59;;;17.86;72.91
70127;BME280;57491;42.694;23.314;2023-06-04T00:07:13;95304.69;;;17.93;72.58
70127;BME280;57491;42.694;23.314;2023-06-04T00:09:41;95305.84;;;17.97;71.64
70127;BME280;57491;42.694;23.314;2023-06-04T00:12:08;95299.66;;;17.91;71.68
70127;BME280;57491;42.694;23.314;2023-06-04T00:14:35;95294.41;;;17.91;71.42
70127;BME280;57491;42.694;23.314;2023-06-04T00:17:02;95298.91;;;17.84;71.30
70127;BME280;57491;42.694;23.314;2023-06-04T00:19:29;95297.69;;;17.87;71.49
70127;BME280;57491;42.694;23.314;2023-06-04T00:21:56;95294.81;;;17.88;70.81
70127;BME280;57491;42.694;23.314;2023-06-04T00:24:23;95295.88;;;17.87;71.15
70127;BME280;57491;42.694;23.314;2023-06-04T00:26:52;95292.97;;;17.70;71.24
70127;BME280;57491;42.694;23.314;2023-06-04T00:29:19;95294.00;;;17.45;72.32
70127;BME280;57491;42.694;23.314;2023-06-04T00:31:46;95291.84;;;17.35;72.75
70127;BME280;57491;42.694;23.314;2023-06-04T00:34:13;95290.03;;;17.35;73.08
70127;BME280;57491;42.694;23.314;2023-06-04T00:36:40;95286.88;;;17.27;73.57
70127;BME280;57491;42.694;23.314;2023-06-04T00:39:07;95288.88;;;17.31;73.54
70127;BME280;57491;42.694;23.314;2023-06-04T00:41:34;95284.94;;;17.40;73.59
70127;BME280;57491;42.694;23.314;2023-06-04T00:44:02;95280.69;;;17.39;72.91
70127;BME280;57491;42.694;23.314;2023-06-04T00:46:32;95287.09;;;17.50;73.15
70127;BME280;57491;42.694;23.314;2023-06-04T00:49:01;95283.13;;;17.41;72.93
70127;BME280;57491;42.694;23.314;2023-06-04T00:51:30;95276.63;;;17.44;73.30
70127;BME280;57491;42.694;23.314;2023-06-04T00:53:58;95281.03;;;17.50;73.32
70127;BME280;57491;42.694;23.314;2023-06-04T00:56:27;95283.38;;;17.58;73.13
70127;BME280;57491;42.694;23.314;2023-06-04T00:58:54;95284.72;;;17.67;73.07
70127;BME280;57491;42.694;23.314;2023-06-04T01:01:29;95285.81;;;17.59;73.02
70127;BME280;57491;42.694;23.314;2023-06-04T01:04:00;95289.06;;;17.55;73.56
70127;BME280;57491;42.694;23.314;2023-06-04T01:06:33;95285.00;;;17.59;73.69
70127;BME280;57491;42.694;23.314;2023-06-04T01:09:03;95285.16;;;17.64;73.18
70127;BME280;57491;42.694;23.314;2023-06-04T01:11:32;95274.09;;;17.55;73.25
70127;BME280;57491;42.694;23.314;2023-06-04T01:14:00;95280.16;;;17.56;73.66
70127;BME280;57491;42.694;23.314;2023-06-04T01:16:32;95271.53;;;17.49;73.44
70127;BME280;57491;42.694;23.314;2023-06-04T01:19:04;95281.50;;;17.40;72.96
70127;BME280;57491;42.694;23.314;2023-06-04T01:21:48;95277.91;;;17.34;73.68
70127;BME280;57491;42.694;23.314;2023-06-04T01:24:21;95276.41;;;17.45;73.42
70127;BME280;57491;42.694;23.314;2023-06-04T01:26:50;95280.81;;;17.26;73.98
70127;BME280;57491;42.694;23.314;2023-06-04T01:29:21;95280.94;;;17.38;73.93
70127;BME280;57491;42.694;23.314;2023-06-04T01:31:52;95287.13;;;17.44;73.85
70127;BME280;57491;42.694;23.314;2023-06-04T01:34:19;95287.13;;;17.44;73.21
70127;BME280;57491;42.694;23.314;2023-06-04T01:36:46;95286.47;;;17.48;72.95
70127;BME280;57491;42.694;23.314;2023-06-04T01:39:13;95301.25;;;17.49;73.08
70127;BME280;57491;42.694;23.314;2023-06-04T01:41:40;95296.63;;;17.45;73.23
70127;BME280;57491;42.694;23.314;2023-06-04T01:44:07;95305.75;;;17.42;73.36
70127;BME280;57491;42.694;23.314;2023-06-04T01:46:34;95300.28;;;17.44;73.48
70127;BME280;57491;42.694;23.314;2023-06-04T01:49:03;95302.53;;;17.40;73.50
70127;BME280;57491;42.694;23.314;2023-06-04T01:51:31;95306.25;;;17.32;74.26
70127;BME280;57491;42.694;23.314;2023-06-04T01:53:58;95303.47;;;17.27;73.65
70127;BME280;57491;42.694;23.314;2023-06-04T01:56:26;95303.50;;;17.21;74.28
70127;BME280;57491;42.694;23.314;2023-06-04T01:58:53;95310.09;;;17.05;74.32
70127;BME280;57491;42.694;23.314;2023-06-04T02:01:21;95300.16;;;17.07;74.34
70127;BME280;57491;42.694;23.314;2023-06-04T02:03:47;95311.22;;;17.16;74.63
70127;BME280;57491;42.694;23.314;2023-06-04T02:06:16;95313.44;;;17.19;74.53
70127;BME280;57491;42.694;23.314;2023-06-04T02:08:43;95311.09;;;17.04;74.71
70127;BME280;57491;42.694;23.314;2023-06-04T02:11:10;95309.47;;;17.03;74.99
70127;BME280;57491;42.694;23.314;2023-06-04T02:13:37;95312.91;;;17.04;75.51
70127;BME280;57491;42.694;23.314;2023-06-04T02:16:05;95312.38;;;16.95;75.68
70127;BME280;57491;42.694;23.314;2023-06-04T02:18:32;95316.56;;;17.03;76.09
70127;BME280;57491;42.694;23.314;2023-06-04T02:20:59;95321.59;;;17.04;75.57
70127;BME280;57491;42.694;23.314;2023-06-04T02:23:27;95315.72;;;17.09;75.47
70127;BME280;57491;42.694;23.314;2023-06-04T02:25:55;95326.19;;;17.15;75.51
70127;BME280;57491;42.694;23.314;2023-06-04T02:28:22;95324.84;;;17.06;75.98
70127;BME280;57491;42.694;23.314;2023-06-04T02:30:49;95337.25;;;16.92;76.74
70127;BME280;57491;42.694;23.314;2023-06-04T02:33:16;95342.00;;;17.02;76.15
70127;BME280;57491;42.694;23.314;2023-06-04T02:35:43;95339.78;;;17.06;76.11
70127;BME280;57491;42.694;23.314;2023-06-04T02:38:10;95340.00;;;17.04;75.86
70127;BME280;57491;42.694;23.314;2023-06-04T02:40:38;95345.88;;;17.00;76.35
70127;BME280;57491;42.694;23.314;2023-06-04T02:43:05;95328.59;;;16.85;76.72
70127;BME280;57491;42.694;23.314;2023-06-04T02:45:32;95344.50;;;16.97;76.25
70127;BME280;57491;42.694;23.314;2023-06-04T02:48:00;95350.41;;;16.86;77.10
70127;BME280;57491;42.694;23.314;2023-06-04T02:50:27;95353.38;;;16.96;77.12
70127;BME280;57491;42.694;23.314;2023-06-04T02:52:54;95353.00;;;16.92;76.98
70127;BME280;57491;42.694;23.314;2023-06-04T02:55:21;95357.63;;;16.97;77.24
70127;BME280;57491;42.694;23.314;2023-06-04T02:57:49;95357.03;;;16.95;76.44
70127;BME280;57491;42.694;23.314;2023-06-04T03:00:18;95353.75;;;17.00;76.81
70127;BME280;57491;42.694;23.314;2023-06-04T03:02:46;95366.09;;;16.99;76.74
70127;BME280;57491;42.694;23.314;2023-06-04T03:05:15;95352.94;;;17.06;77.22
70127;BME280;57491;42.694;23.314;2023-06-04T03:07:44;95361.75;;;17.11;76.54
70127;BME280;57491;42.694;23.314;2023-06-04T03:10:12;95361.34;;;17.14;76.55
70127;BME280;57491;42.694;23.314;2023-06-04T03:12:39;95358.72;;;17.14;76.46
70127;BME280;57491;42.694;23.314;2023-06-04T03:15:09;95360.91;;;17.17;76.46
70127;BME280;57491;42.694;23.314;2023-06-04T03:17:36;95363.56;;;17.17;76.34
70127;BME280;57491;42.694;23.314;2023-06-04T03:20:04;95365.63;;;17.09;76.01
70127;BME280;57491;42.694;23.314;2023-06-04T03:22:33;95361.94;;;17.16;75.99
70127;BME280;57491;42.694;23.314;2023-06-04T03:25:01;95368.25;;;17.09;76.46
70127;BME280;57491;42.694;23.314;2023-06-04T03:27:30;95363.44;;;17.06;76.99
70127;BME280;57491;42.694;23.314;2023-06-04T03:29:57;95365.03;;;17.07;76.53
70127;BME280;57491;42.694;23.314;2023-06-04T03:32:26;95369.00;;;17.16;76.57
70127;BME280;57491;42.694;23.314;2023-06-04T03:34:53;95373.47;;;17.15;76.38
70127;BME280;57491;42.694;23.314;2023-06-04T03:37:20;95376.25;;;17.20;76.35
70127;BME280;57491;42.694;23.314;2023-06-04T03:39:47;95374.59;;;17.26;76.05
70127;BME280;57491;42.694;23.314;2023-06-04T03:42:14;95372.75;;;17.33;75.91
70127;BME280;57491;42.694;23.314;2023-06-04T03:44:41;95379.38;;;17.42;75.90
70127;BME280;57491;42.694;23.314;2023-06-04T03:47:08;95381.34;;;17.47;75.24
70127;BME280;57491;42.694;23.314;2023-06-04T03:49:37;95389.25;;;17.47;75.07
70127;BME280;57491;42.694;23.314;2023-06-04T03:52:04;95392.50;;;17.42;75.19
70127;BME280;57491;42.694;23.314;2023-06-04T03:54:31;95387.00;;;17.44;75.11
70127;BME280;57491;42.694;23.314;2023-06-04T03:56:58;95394.31;;;17.42;75.01
70127;BME280;57491;42.694;23.314;2023-06-04T03:59:25;95380.53;;;17.46;75.53
70127;BME280;57491;42.694;23.314;2023-06-04T04:01:52;95390.63;;;17.49;75.30
70127;BME280;57491;42.694;23.314;2023-06-04T04:04:19;95397.88;;;17.54;75.53
70127;BME280;57491;42.694;23.314;2023-06-04T04:06:48;95396.84;;;17.55;75.06
70127;BME280;57491;42.694;23.314;2023-06-04T04:09:15;95388.53;;;17.58;75.19
70127;BME280;57491;42.694;23.314;2023-06-04T04:11:42;95395.97;;;17.67;74.88
70127;BME280;57491;42.694;23.314;2023-06-04T04:14:09;95393.53;;;17.66;74.79
70127;BME280;57491;42.694;23.314;2023-06-04T04:16:36;95397.34;;;17.70;74.67
70127;BME280;57491;42.694;23.314;2023-06-04T04:19:03;95402.22;;;17.73;74.74
70127;BME280;57491;42.694;23.314;2023-06-04T04:21:33;95400.59;;;17.72;74.55
70127;BME280;57491;42.694;23.314;2023-06-04T04:24:03;95400.84;;;17.64;75.05
70127;BME280;57491;42.694;23.314;2023-06-04T04:26:31;95401.06;;;17.62;75.11
70127;BME280;57491;42.694;23.314;2023-06-04T04:28:58;95391.38;;;17.56;75.36
70127;BME280;57491;42.694;23.314;2023-06-04T04:31:26;95396.19;;;17.66;74.94
70127;BME280;57491;42.694;23.314;2023-06-04T04:33:54;95407.88;;;17.70;75.03
70127;BME280;57491;42.694;23.314;2023-06-04T04:36:21;95398.47;;;17.56;75.13
70127;BME280;57491;42.694;23.314;2023-06-04T04:38:48;95392.97;;;17.57;75.29
70127;BME280;57491;42.694;23.314;2023-06-04T04:41:21;95405.47;;;17.68;75.36
70127;BME280;57491;42.694;23.314;2023-06-04T04:43:48;95398.16;;;17.70;75.33
70127;BME280;57491;42.694;23.314;2023-06-04T04:46:15;95400.75;;;17.77;74.90
70127;BME280;57491;42.694;23.314;2023-06-04T04:48:43;95387.22;;;17.73;74.49
70127;BME280;57491;42.694;23.314;2023-06-04T04:51:10;95402.53;;;17.83;74.40
70127;BME280;57491;42.694;23.314;2023-06-04T04:53:37;95406.91;;;17.89;74.19
70127;BME280;57491;42.694;23.314;2023-06-04T04:56:04;95414.13;;;18.00;73.75
70127;BME280;57491;42.694;23.314;2023-06-04T04:58:33;95412.16;;;18.14;73.40
70127;BME280;57491;42.694;23.314;2023-06-04T05:01:00;95408.59;;;18.26;72.66
70127;BME280;57491;42.694;23.314;2023-06-04T05:03:27;95407.34;;;18.29;71.66
70127;BME280;57491;42.694;23.314;2023-06-04T05:05:54;95408.50;;;18.33;71.61
70127;BME280;57491;42.694;23.314;2023-06-04T05:08:21;95413.63;;;18.46;70.92
70127;BME280;57491;42.694;23.314;2023-06-04T05:10:48;95409.78;;;18.49;70.84
70127;BME280;57491;42.694;23.314;2023-06-04T05:13:15;95413.53;;;18.59;71.20
70127;BME280;57491;42.694;23.314;2023-06-04T05:15:44;95405.56;;;18.66;70.42
70127;BME280;57491;42.694;23.314;2023-06-04T05:18:13;95422.22;;;18.60;69.61
70127;BME280;57491;42.694;23.314;2023-06-04T05:20:41;95425.97;;;18.70;69.69
70127;BME280;57491;42.694;23.314;2023-06-04T05:23:08;95420.13;;;18.68;69.27
70127;BME280;57491;42.694;23.314;2023-06-04T05:25:38;95419.97;;;18.82;69.06
70127;BME280;57491;42.694;23.314;2023-06-04T05:28:06;95421.94;;;18.86;68.94
70127;BME280;57491;42.694;23.314;2023-06-04T05:30:33;95421.84;;;18.93;68.03
70127;BME280;57491;42.694;23.314;2023-06-04T05:33:01;95422.75;;;18.68;68.27
70127;BME280;57491;42.694;23.314;2023-06-04T05:35:28;95415.78;;;18.74;68.60
70127;BME280;57491;42.694;23.314;2023-06-04T05:37:55;95422.97;;;18.67;68.25
70127;BME280;57491;42.694;23.314;2023-06-04T05:40:22;95425.66;;;18.79;67.74
70127;BME280;57491;42.694;23.314;2023-06-04T05:42:49;95426.97;;;18.88;67.80
70127;BME280;57491;42.694;23.314;2023-06-04T05:45:17;95427.31;;;18.91;67.33
70127;BME280;57491;42.694;23.314;2023-06-04T05:47:44;95432.03;;;18.89;66.95
70127;BME280;57491;42.694;23.314;2023-06-04T05:50:13;95447.69;;;18.84;66.19
70127;BME280;57491;42.694;23.314;2023-06-04T05:52:42;95439.47;;;18.92;66.54
70127;BME280;57491;42.694;23.314;2023-06-04T05:55:09;95446.34;;;18.93;65.18
70127;BME280;57491;42.694;23.314;2023-06-04T05:57:36;95434.69;;;19.01;65.24
70127;BME280;57491;42.694;23.314;2023-06-04T06:00:03;95440.13;;;18.88;65.56
70127;BME280;57491;42.694;23.314;2023-06-04T06:02:34;95441.41;;;18.67;66.00
70127;BME280;57491;42.694;23.314;2023-06-04T06:05:01;95453.91;;;18.71;65.85
70127;BME280;57491;42.694;23.314;2023-06-04T06:07:30;95444.75;;;18.74;66.14
70127;BME280;57491;42.694;23.314;2023-06-04T06:09:56;95443.16;;;18.73;66.01
70127;BME280;57491;42.694;23.314;2023-06-04T06:12:23;95448.19;;;18.93;65.91
70127;BME280;57491;42.694;23.314;2023-06-04T06:14:51;95449.19;;;19.10;65.21
70127;BME280;57491;42.694;23.314;2023-06-04T06:17:18;95448.78;;;19.25;64.06
70127;BME280;57491;42.694;23.314;2023-06-04T06:19:45;95450.16;;;19.45;64.09
70127;BME280;57491;42.694;23.314;2023-06-04T06:22:12;95448.72;;;19.61;63.43
70127;BME280;57491;42.694;23.314;2023-06-04T06:24:40;95449.41;;;19.56;63.28
70127;BME280;57491;42.694;23.314;2023-06-04T06:27:07;95446.41;;;19.53;62.87
70127;BME280;57491;42.694;23.314;2023-06-04T06:29:34;95441.84;;;19.60;62.92
70127;BME280;57491;42.694;23.314;2023-06-04T06:32:01;95444.72;;;19.58;61.97
70127;BME280;57491;42.694;23.314;2023-06-04T06:34:28;95448.97;;;19.71;62.88
70127;BME280;57491;42.694;23.314;2023-06-04T06:36:55;95450.06;;;19.93;62.10
70127;BME280;57491;42.694;23.314;2023-06-04T06:39:22;95453.50;;;20.05;61.62
70127;BME280;57491;42.694;23.314;2023-06-04T06:41:51;95457.53;;;20.08;60.96
70127;BME280;57491;42.694;23.314;2023-06-04T06:44:18;95452.13;;;20.03;60.61
70127;BME280;57491;42.694;23.314;2023-06-04T06:46:45;95450.38;;;19.85;60.97
70127;BME280;57491;42.694;23.314;2023-06-04T06:49:14;95453.44;;;19.71;61.84
70127;BME280;57491;42.694;23.314;2023-06-04T06:51:42;95452.09;;;19.80;61.73
70127;BME280;57491;42.694;23.314;2023-06-04T06:54:09;95454.31;;;19.94;61.46
70127;BME280;57491;42.694;23.314;2023-06-04T06:56:36;95455.34;;;20.05;60.89
70127;BME280;57491;42.694;23.314;2023-06-04T06:59:04;95462.13;;;20.13;60.04
70127;BME280;57491;42.694;23.314;2023-06-04T07:01:31;95465.91;;;20.28;59.88
70127;BME280;57491;42.694;23.314;2023-06-04T07:03:59;95457.66;;;20.36;59.72
70127;BME280;57491;42.694;23.314;2023-06-04T07:06:26;95460.09;;;20.38;59.42
70127;BME280;57491;42.694;23.314;2023-06-04T07:08:53;95463.75;;;20.37;59.26
70127;BME280;57491;42.694;23.314;2023-06-04T07:11:21;95476.50;;;20.52;59.40
70127;BME280;57491;42.694;23.314;2023-06-04T07:13:48;95473.97;;;20.68;59.15
70127;BME280;57491;42.694;23.314;2023-06-04T07:16:16;95474.41;;;20.77;59.25
70127;BME280;57491;42.694;23.314;2023-06-04T07:18:47;95473.16;;;20.79;58.60
70127;BME280;57491;42.694;23.314;2023-06-04T07:21:15;95480.72;;;20.87;58.50
70127;BME280;57491;42.694;23.314;2023-06-04T07:23:42;95482.06;;;20.90;58.85
70127;BME280;57491;42.694;23.314;2023-06-04T07:26:11;95492.44;;;20.91;58.39
70127;BME280;57491;42.694;23.314;2023-06-04T07:28:38;95477.84;;;20.77;58.86
70127;BME280;57491;42.694;23.314;2023-06-04T07:31:05;95487.59;;;21.00;58.72
70127;BME280;57491;42.694;23.314;2023-06-04T07:33:33;95487.09;;;21.03;59.00
70127;BME280;57491;42.694;23.314;2023-06-04T07:36:00;95490.81;;;21.14;58.67
70127;BME280;57491;42.694;23.314;2023-06-04T07:38:27;95490.84;;;21.30;58.09
70127;BME280;57491;42.694;23.314;2023-06-04T07:40:55;95489.06;;;21.19;58.54
70127;BME280;57491;42.694;23.314;2023-06-04T07:43:22;95501.22;;;21.32;58.26
70127;BME280;57491;42.694;23.314;2023-06-04T07:45:49;95482.91;;;21.42;58.10
70127;BME280;57491;42.694;23.314;2023-06-04T07:48:16;95496.81;;;21.66;57.12
70127;BME280;57491;42.694;23.314;2023-06-04T07:50:45;95500.25;;;21.66;57.48
70127;BME280;57491;42.694;23.314;2023-06-04T07:53:12;95505.03;;;21.81;57.11
70127;BME280;57491;42.694;23.314;2023-06-04T07:55:39;95494.13;;;21.77;57.02
70127;BME280;57491;42.694;23.314;2023-06-04T07:58:06;95493.44;;;21.99;56.97
70127;BME280;57491;42.694;23.314;2023-06-04T08:00:33;95504.78;;;22.28;56.03
70127;BME280;57491;42.694;23.314;2023-06-04T08:03:00;95497.16;;;22.31;55.69
70127;BME280;57491;42.694;23.314;2023-06-04T08:05:27;95502.38;;;22.09;56.58
70127;BME280;57491;42.694;23.314;2023-06-04T08:07:55;95500.50;;;22.43;55.72
70127;BME280;57491;42.694;23.314;2023-06-04T08:10:23;95496.91;;;22.49;55.75
70127;BME280;57491;42.694;23.314;2023-06-04T08:12:49;95501.78;;;22.91;54.32
70127;BME280;57491;42.694;23.314;2023-06-04T08:15:17;95509.06;;;23.00;53.27
70127;BME280;57491;42.694;23.314;2023-06-04T08:17:44;95507.47;;;23.21;53.12
70127;BME280;57491;42.694;23.314;2023-06-04T08:20:11;95512.31;;;23.29;52.35
70127;BME280;57491;42.694;23.314;2023-06-04T08:22:38;95503.81;;;23.05;52.46
70127;BME280;57491;42.694;23.314;2023-06-04T08:25:08;95507.28;;;23.28;52.59
70127;BME280;57491;42.694;23.314;2023-06-04T08:27:36;95513.75;;;23.37;51.87
70127;BME280;57491;42.694;23.314;2023-06-04T08:30:04;95520.06;;;22.92;52.60
70127;BME280;57491;42.694;23.314;2023-06-04T08:32:31;95514.25;;;22.57;53.45
70127;BME280;57491;42.694;23.314;2023-06-04T08:34:58;95521.06;;;22.86;53.35
70127;BME280;57491;42.694;23.314;2023-06-04T08:37:25;95506.94;;;22.47;53.10
70127;BME280;57491;42.694;23.314;2023-06-04T08:39:52;95526.75;;;22.95;52.94
70127;BME280;57491;42.694;23.314;2023-06-04T08:42:27;95522.69;;;23.09;53.29
70127;BME280;57491;42.694;23.314;2023-06-04T08:44:56;95529.94;;;22.97;53.65
70127;BME280;57491;42.694;23.314;2023-06-04T08:47:25;95528.91;;;22.98;53.37
70127;BME280;57491;42.694;23.314;2023-06-04T08:49:52;95525.78;;;23.01;52.99
70127;BME280;57491;42.694;23.314;2023-06-04T08:52:23;95529.06;;;23.51;52.35
70127;BME280;57491;42.694;23.314;2023-06-04T08:54:51;95540.09;;;23.43;51.34
70127;BME280;57491;42.694;23.314;2023-06-04T08:57:18;95532.00;;;23.33;51.69
70127;BME280;57491;42.694;23.314;2023-06-04T08:59:47;95540.59;;;23.19;51.68
70127;BME280;57491;42.694;23.314;2023-06-04T09:02:15;95538.34;;;23.10;52.68
70127;BME280;57491;42.694;23.314;2023-06-04T09:04:42;95534.03;;;23.04;53.20
70127;BME280;57491;42.694;23.314;2023-06-04T09:07:10;95547.19;;;23.16;52.93
70127;BME280;57491;42.694;23.314;2023-06-04T09:09:40;95537.66;;;22.98;52.68
70127;BME280;57491;42.694;23.314;2023-06-04T09:12:09;95549.09;;;23.21;51.40
70127;BME280;57491;42.694;23.314;2023-06-04T09:14:37;95550.03;;;23.31;51.40
70127;BME280;57491;42.694;23.314;2023-06-04T09:17:05;95545.84;;;23.35;51.25
70127;BME280;57491;42.694;23.314;2023-06-04T09:19:32;95547.56;;;23.46;50.67
70127;BME280;57491;42.694;23.314;2023-06-04T09:22:00;95558.28;;;23.13;51.13
70127;BME280;57491;42.694;23.314;2023-06-04T09:24:38;95558.81;;;22.43;52.09
70127;BME280;57491;42.694;23.314;2023-06-04T09:27:09;95552.06;;;22.52;53.40
70127;BME280;57491;42.694;23.314;2023-06-04T09:29:35;95539.72;;;22.41;52.34
70127;BME280;57491;42.694;23.314;2023-06-04T09:32:03;95550.44;;;22.18;51.99
70127;BME280;57491;42.694;23.314;2023-06-04T09:34:31;95540.13;;;22.33;52.04
70127;BME280;57491;42.694;23.314;2023-06-04T09:36:58;95543.00;;;22.48;52.18
70127;BME280;57491;42.694;23.314;2023-06-04T09:39:25;95528.13;;;22.81;51.30
70127;BME280;57491;42.694;23.314;2023-06-04T09:41:59;95540.41;;;23.25;50.36
70127;BME280;57491;42.694;23.314;2023-06-04T09:44:29;95545.19;;;23.45;49.10
70127;BME280;57491;42.694;23.314;2023-06-04T09:46:56;95533.59;;;23.78;48.55
70127;BME280;57491;42.694;23.314;2023-06-04T09:49:24;95541.66;;;24.41;47.58
70127;BME280;57491;42.694;23.314;2023-06-04T09:51:53;95542.47;;;24.42;47.37
70127;BME280;57491;42.694;23.314;2023-06-04T09:54:20;95542.91;;;24.66;46.59
70127;BME280;57491;42.694;23.314;2023-06-04T09:56:47;95530.44;;;25.03;45.38
70127;BME280;57491;42.694;23.314;2023-06-04T09:59:15;95539.00;;;24.78;46.70
70127;BME280;57491;42.694;23.314;2023-06-04T10:01:42;95525.50;;;24.85;46.70
70127;BME280;57491;42.694;23.314;2023-06-04T10:04:10;95544.50;;;25.04;45.15
70127;BME280;57491;42.694;23.314;2023-06-04T10:06:40;95527.97;;;24.60;46.69
70127;BME280;57491;42.694;23.314;2023-06-04T10:09:10;95533.41;;;24.75;45.91
70127;BME280;57491;42.694;23.314;2023-06-04T10:11:44;95536.66;;;25.29;44.15
70127;BME280;57491;42.694;23.314;2023-06-04T10:14:19;95527.94;;;25.44;44.04
70127;BME280;57491;42.694;23.314;2023-06-04T10:16:49;95532.03;;;25.09;44.71
70127;BME280;57491;42.694;23.314;2023-06-04T10:19:18;95526.44;;;25.63;43.99
70127;BME280;57491;42.694;23.314;2023-06-04T10:21:45;95541.06;;;25.60;43.53
70127;BME280;57491;42.694;23.314;2023-06-04T10:24:14;95528.31;;;25.10;45.22
70127;BME280;57491;42.694;23.314;2023-06-04T10:26:42;95523.97;;;25.51;44.45
70127;BME280;57491;42.694;23.314;2023-06-04T10:29:10;95515.19;;;24.94;45.95
70127;BME280;57491;42.694;23.314;2023-06-04T10:31:38;95525.34;;;25.54;43.44
70127;BME280;57491;42.694;23.314;2023-06-04T10:34:07;95531.84;;;25.88;42.26
70127;BME280;57491;42.694;23.314;2023-06-04T10:36:42;95529.16;;;25.83;42.62
70127;BME280;57491;42.694;23.314;2023-06-04T10:39:10;95527.88;;;25.28;44.02
70127;BME280;57491;42.694;23.314;2023-06-04T10:41:38;95529.84;;;24.27;46.32
70127;BME280;57491;42.694;23.314;2023-06-04T10:44:06;95521.38;;;24.30;46.63
70127;BME280;57491;42.694;23.314;2023-06-04T10:46:41;95519.47;;;24.26;46.11
70127;BME280;57491;42.694;23.314;2023-06-04T10:49:09;95521.75;;;24.44;45.60
70127;BME280;57491;42.694;23.314;2023-06-04T10:51:37;95520.88;;;24.33;46.06
70127;BME280;57491;42.694;23.314;2023-06-04T10:54:06;95515.84;;;24.37;46.17
70127;BME280;57491;42.694;23.314;2023-06-04T10:56:34;95521.38;;;24.30;45.92
70127;BME280;57491;42.694;23.314;2023-06-04T10:59:14;95516.22;;;24.51;45.78
70127;BME280;57491;42.694;23.314;2023-06-04T11:01:42;95525.03;;;23.97;46.78
70127;BME280;57491;42.694;23.314;2023-06-04T11:04:18;95507.00;;;23.99;46.76
70127;BME280;57491;42.694;23.314;2023-06-04T11:06:46;95513.38;;;24.25;45.66
70127;BME280;57491;42.694;23.314;2023-06-04T11:09:13;95504.41;;;24.36;45.85
70127;BME280;57491;42.694;23.314;2023-06-04T11:11:42;95517.16;;;24.08;46.57
70127;BME280;57491;42.694;23.314;2023-06-04T11:14:11;95520.66;;;23.60;47.85
70127;BME280;57491;42.694;23.314;2023-06-04T11:16:40;95519.72;;;23.71;48.03
70127;BME280;57491;42.694;23.314;2023-06-04T11:19:06;95511.69;;;23.66;48.53
70127;BME280;57491;42.694;23.314;2023-06-04T11:21:34;95509.78;;;23.61;47.75
70127;BME280;57491;42.694;23.314;2023-06-04T11:24:04;95512.88;;;23.75;46.62
70127;BME280;57491;42.694;23.314;2023-06-04T11:26:31;95519.56;;;23.82;46.73
70127;BME280;57491;42.694;23.314;2023-06-04T11:28:59;95515.06;;;23.83;47.01
70127;BME280;57491;42.694;23.314;2023-06-04T11:31:26;95499.88;;;23.78;46.98
70127;BME280;57491;42.694;23.314;2023-06-04T11:33:55;95514.66;;;23.69;47.40
70127;BME280;57491;42.694;23.314;2023-06-04T11:36:23;95506.78;;;23.52;48.14
70127;BME280;57491;42.694;23.314;2023-06-04T11:38:54;95505.88;;;23.69;47.97
70127;BME280;57491;42.694;23.314;2023-06-04T11:41:22;95515.97;;;23.67;47.90
70127;BME280;57491;42.694;23.314;2023-06-04T11:43:49;95512.84;;;23.48;48.54
70127;BME280;57491;42.694;23.314;2023-06-04T11:46:16;95517.94;;;23.33;48.63
70127;BME280;57491;42.694;23.314;2023-06-04T11:48:44;95512.22;;;22.81;49.55
70127;BME280;57491;42.694;23.314;2023-06-04T11:51:13;95511.44;;;22.63;50.78
70127;BME280;57491;42.694;23.314;2023-06-04T11:53:40;95516.25;;;22.50;51.39
70127;BME280;57491;42.694;23.314;2023-06-04T11:56:08;95517.84;;;22.34;51.80
70127;BME280;57491;42.694;23.314;2023-06-04T11:58:37;95521.09;;;22.36;51.55
70127;BME280;57491;42.694;23.314;2023-06-04T12:01:04;95518.94;;;22.33;51.34
70127;BME280;57491;42.694;23.314;2023-06-04T12:03:34;95518.94;;;22.33;51.32
70127;BME280;57491;42.694;23.314;2023-06-04T12:06:22;95528.28;;;22.07;52.31
70127;BME280;57491;42.694;23.314;2023-06-04T12:08:49;95522.66;;;22.04;53.03
70127;BME280;57491;42.694;23.314;2023-06-04T12:11:28;95523.69;;;22.03;53.15
70127;BME280;57491;42.694;23.314;2023-06-04T12:13:58;95526.63;;;22.18;52.82
70127;BME280;57491;42.694;23.314;2023-06-04T12:16:26;95525.22;;;22.15;52.83
70127;BME280;57491;42.694;23.314;2023-06-04T12:19:04;95530.06;;;22.18;52.76
70127;BME280;57491;42.694;23.314;2023-06-04T12:21:33;95533.53;;;22.19;53.10
70127;BME280;57491;42.694;23.314;2023-06-04T12:24:07;95531.09;;;22.34;53.34
70127;BME280;57491;42.694;23.314;2023-06-04T12:26:36;95527.03;;;22.27;52.65
70127;BME280;57491;42.694;23.314;2023-06-04T12:29:10;95526.53;;;22.30;52.53
70127;BME280;57491;42.694;23.314;2023-06-04T12:31:38;95525.59;;;22.19;53.88
70127;BME280;57491;42.694;23.314;2023-06-04T12:34:05;95527.09;;;21.87;54.26
70127;BME280;57491;42.694;23.314;2023-06-04T12:36:34;95519.59;;;21.95;53.84
70127;BME280;57491;42.694;23.314;2023-06-04T12:39:03;95520.03;;;22.04;53.21
70127;BME280;57491;42.694;23.314;2023-06-04T12:41:31;95521.06;;;22.03;53.58
70127;BME280;57491;42.694;23.314;2023-06-04T12:43:59;95519.63;;;22.12;53.37
70127;BME280;57491;42.694;23.314;2023-06-04T12:46:26;95516.44;;;22.27;53.27
70127;BME280;57491;42.694;23.314;2023-06-04T12:48:54;95522.13;;;22.35;53.34
70127;BME280;57491;42.694;23.314;2023-06-04T12:51:22;95519.31;;;22.25;53.38
70127;BME280;57491;42.694;23.314;2023-06-04T12:53:50;95516.66;;;22.25;53.08
70127;BME280;57491;42.694;23.314;2023-06-04T12:56:18;95525.97;;;22.28;52.99